sensor_id;sensor_type;location;lat;lon;timestamp;pressure;altitude;pressure_sealevel;temperature;humidity
54022;BME280;39936;51.058;17.220;2023-03-14T00:01:37;99964.52;;;7.91;81.76
54022;BME280;39936;51.058;17.220;2023-03-14T00:05:42;99947.84;;;8.00;81.48
54022;BME280;39936;51.058;17.220;2023-03-14T00:09:22;99903.88;;;7.72;81.66
54022;BME280;39936;51.058;17.220;2023-03-14T00:12:53;99933.75;;;7.96;81.65
54022;BME280;39936;51.058;17.220;2023-03-14T00:16:26;99931.76;;;7.81;82.42
54022;BME280;39936;51.058;17.220;2023-03-14T00:19:59;99941.94;;;7.74;82.59
54022;BME280;39936;51.058;17.220;2023-03-14T00:23:48;99923.13;;;7.66;82.62
54022;BME280;39936;51.058;17.220;2023-03-14T00:31:16;99929.82;;;7.80;83.12
54022;BME280;39936;51.058;17.220;2023-03-14T00:35:01;99918.59;;;7.80;82.91
54022;BME280;39936;51.058;17.220;2023-03-14T00:39:18;99891.07;;;7.66;82.66
54022;BME280;39936;51.058;17.220;2023-03-14T00:43:17;99928.30;;;7.69;84.25
54022;BME280;39936;51.058;17.220;2023-03-14T00:47:26;99917.73;;;7.59;84.92
54022;BME280;39936;51.058;17.220;2023-03-14T00:50:58;99935.38;;;7.29;87.26
54022;BME280;39936;51.058;17.220;2023-03-14T00:54:25;99940.45;;;7.30;86.97
54022;BME280;39936;51.058;17.220;2023-03-14T00:57:52;99935.59;;;7.35;86.90
54022;BME280;39936;51.058;17.220;2023-03-14T01:01:31;99927.12;;;7.40;86.89
54022;BME280;39936;51.058;17.220;2023-03-14T01:05:14;99913.53;;;7.36;87.26
54022;BME280;39936;51.058;17.220;2023-03-14T01:09:02;99959.81;;;7.42;87.37
54022;BME280;39936;51.058;17.220;2023-03-14T01:12:47;99998.31;;;7.24;89.21
54022;BME280;39936;51.058;17.220;2023-03-14T01:16:19;99991.32;;;7.04;89.79
54022;BME280;39936;51.058;17.220;2023-03-14T01:19:58;99984.51;;;7.03;90.14
54022;BME280;39936;51.058;17.220;2023-03-14T01:24:11;99961.70;;;6.93;91.47
54022;BME280;39936;51.058;17.220;2023-03-14T01:27:54;99940.45;;;6.95;92.06
54022;BME280;39936;51.058;17.220;2023-03-14T01:31:40;99971.41;;;7.23;92.04
54022;BME280;39936;51.058;17.220;2023-03-14T01:35:53;99949.13;;;7.28;92.19
54022;BME280;39936;51.058;17.220;2023-03-14T01:39:39;99929.62;;;7.26;92.26
54022;BME280;39936;51.058;17.220;2023-03-14T01:43:32;99920.17;;;7.36;91.84
54022;BME280;39936;51.058;17.220;2023-03-14T01:47:13;99860.62;;;7.17;91.14
54022;BME280;39936;51.058;17.220;2023-03-14T01:51:00;99864.12;;;7.42;89.94
54022;BME280;39936;51.058;17.220;2023-03-14T01:54:37;99905.36;;;7.59;89.20
54022;BME280;39936;51.058;17.220;2023-03-14T01:58:35;99892.70;;;7.72;89.49
54022;BME280;39936;51.058;17.220;2023-03-14T02:01:59;99863.90;;;7.91;88.56
54022;BME280;39936;51.058;17.220;2023-03-14T02:05:38;99842.27;;;8.03;88.00
54022;BME280;39936;51.058;17.220;2023-03-14T02:09:22;99836.32;;;8.11;88.20
54022;BME280;39936;51.058;17.220;2023-03-14T02:13:31;99801.63;;;7.81;88.67
54022;BME280;39936;51.058;17.220;2023-03-14T02:17:42;99793.77;;;7.74;89.34
54022;BME280;39936;51.058;17.220;2023-03-14T02:21:38;99807.45;;;7.98;88.90
54022;BME280;39936;51.058;17.220;2023-03-14T02:28:53;99818.37;;;7.79;89.17
54022;BME280;39936;51.058;17.220;2023-03-14T02:32:14;99806.55;;;7.64;90.12
54022;BME280;39936;51.058;17.220;2023-03-14T02:35:51;99795.14;;;7.64;89.49
54022;BME280;39936;51.058;17.220;2023-03-14T02:39:38;99753.25;;;7.59;88.68
54022;BME280;39936;51.058;17.220;2023-03-14T02:43:16;99782.55;;;7.92;87.44
54022;BME280;39936;51.058;17.220;2023-03-14T02:46:59;99781.65;;;7.99;86.29
54022;BME280;39936;51.058;17.220;2023-03-14T02:50:39;99772.39;;;8.02;85.78
54022;BME280;39936;51.058;17.220;2023-03-14T02:53:57;99752.53;;;8.00;85.19
54022;BME280;39936;51.058;17.220;2023-03-14T02:57:53;99787.21;;;8.15;83.31
54022;BME280;39936;51.058;17.220;2023-03-14T03:01:34;99749.59;;;8.27;82.03
54022;BME280;39936;51.058;17.220;2023-03-14T03:04:59;99761.49;;;8.46;81.34
54022;BME280;39936;51.058;17.220;2023-03-14T03:09:07;99742.11;;;8.54;81.55
54022;BME280;39936;51.058;17.220;2023-03-14T03:12:47;99716.52;;;8.49;80.32
54022;BME280;39936;51.058;17.220;2023-03-14T03:16:23;99709.19;;;8.64;79.78
54022;BME280;39936;51.058;17.220;2023-03-14T03:19:44;99699.86;;;8.82;78.08
54022;BME280;39936;51.058;17.220;2023-03-14T03:23:03;99663.96;;;8.94;76.46
54022;BME280;39936;51.058;17.220;2023-03-14T03:26:38;99674.60;;;9.29;75.77
54022;BME280;39936;51.058;17.220;2023-03-14T03:30:32;99678.84;;;9.36;75.60
54022;BME280;39936;51.058;17.220;2023-03-14T03:34:07;99678.05;;;9.20;75.77
54022;BME280;39936;51.058;17.220;2023-03-14T03:37:47;99672.83;;;9.17;75.77
54022;BME280;39936;51.058;17.220;2023-03-14T03:41:43;99660.59;;;9.47;73.26
54022;BME280;39936;51.058;17.220;2023-03-14T03:45:09;99653.93;;;9.69;72.03
54022;BME280;39936;51.058;17.220;2023-03-14T03:49:33;99639.51;;;9.78;71.02
54022;BME280;39936;51.058;17.220;2023-03-14T03:53:00;99620.18;;;9.85;71.00
54022;BME280;39936;51.058;17.220;2023-03-14T03:56:51;99590.20;;;9.85;70.87
54022;BME280;39936;51.058;17.220;2023-03-14T04:00:31;99562.10;;;9.66;70.61
54022;BME280;39936;51.058;17.220;2023-03-14T04:04:35;99597.23;;;9.72;70.85
54022;BME280;39936;51.058;17.220;2023-03-14T04:08:17;99593.30;;;9.75;71.31
54022;BME280;39936;51.058;17.220;2023-03-14T04:12:03;99602.97;;;9.82;71.65
54022;BME280;39936;51.058;17.220;2023-03-14T04:20:01;99616.74;;;9.85;72.30
54022;BME280;39936;51.058;17.220;2023-03-14T04:23:42;99593.13;;;9.80;72.83
54022;BME280;39936;51.058;17.220;2023-03-14T04:31:19;99599.06;;;9.69;74.20
54022;BME280;39936;51.058;17.220;2023-03-14T04:35:25;99576.52;;;9.39;74.89
54022;BME280;39936;51.058;17.220;2023-03-14T04:39:31;99591.78;;;9.52;75.49
54022;BME280;39936;51.058;17.220;2023-03-14T04:43:18;99581.09;;;9.46;75.64
54022;BME280;39936;51.058;17.220;2023-03-14T04:47:21;99574.19;;;9.50;75.74
54022;BME280;39936;51.058;17.220;2023-03-14T04:55:07;99579.31;;;9.47;75.40
54022;BME280;39936;51.058;17.220;2023-03-14T04:58:48;99594.73;;;9.51;75.01
54022;BME280;39936;51.058;17.220;2023-03-14T05:06:33;99583.77;;;9.60;75.07
54022;BME280;39936;51.058;17.220;2023-03-14T05:09:52;99572.63;;;9.69;74.71
54022;BME280;39936;51.058;17.220;2023-03-14T05:13:20;99593.62;;;9.51;75.18
54022;BME280;39936;51.058;17.220;2023-03-14T05:16:46;99599.28;;;9.43;75.68
54022;BME280;39936;51.058;17.220;2023-03-14T05:20:16;99586.86;;;9.49;75.68
54022;BME280;39936;51.058;17.220;2023-03-14T05:23:32;99590.20;;;9.50;75.79
54022;BME280;39936;51.058;17.220;2023-03-14T05:27:16;99574.43;;;9.44;76.21
54022;BME280;39936;51.058;17.220;2023-03-14T05:30:41;99566.35;;;9.48;77.07
54022;BME280;39936;51.058;17.220;2023-03-14T05:34:57;99573.11;;;9.46;77.56
54022;BME280;39936;51.058;17.220;2023-03-14T05:42:40;99557.71;;;9.09;80.45
54022;BME280;39936;51.058;17.220;2023-03-14T05:46:18;99557.45;;;8.87;81.80
54022;BME280;39936;51.058;17.220;2023-03-14T05:49:38;99575.90;;;8.92;81.12
54022;BME280;39936;51.058;17.220;2023-03-14T05:53:17;99583.56;;;8.93;81.23
54022;BME280;39936;51.058;17.220;2023-03-14T05:57:08;99582.92;;;8.94;81.07
54022;BME280;39936;51.058;17.220;2023-03-14T06:01:03;99575.06;;;9.01;80.16
54022;BME280;39936;51.058;17.220;2023-03-14T06:04:24;99567.37;;;9.10;79.46
54022;BME280;39936;51.058;17.220;2023-03-14T06:07:46;99543.47;;;8.92;79.03
54022;BME280;39936;51.058;17.220;2023-03-14T06:11:22;99589.73;;;9.11;79.47
54022;BME280;39936;51.058;17.220;2023-03-14T06:18:56;99563.68;;;9.21;77.45
54022;BME280;39936;51.058;17.220;2023-03-14T06:22:49;99563.34;;;9.26;77.25
54022;BME280;39936;51.058;17.220;2023-03-14T06:26:22;99575.10;;;9.29;77.38
54022;BME280;39936;51.058;17.220;2023-03-14T06:30:10;99588.29;;;9.32;77.65
54022;BME280;39936;51.058;17.220;2023-03-14T06:33:48;99601.81;;;9.41;77.77
54022;BME280;39936;51.058;17.220;2023-03-14T06:38:14;99606.20;;;9.55;77.58
54022;BME280;39936;51.058;17.220;2023-03-14T06:41:34;99604.21;;;9.65;77.31
54022;BME280;39936;51.058;17.220;2023-03-14T06:44:55;99594.86;;;9.63;76.98
54022;BME280;39936;51.058;17.220;2023-03-14T06:48:15;99602.88;;;9.58;76.60
54022;BME280;39936;51.058;17.220;2023-03-14T06:52:32;99615.84;;;9.60;76.95
54022;BME280;39936;51.058;17.220;2023-03-14T06:56:11;99615.23;;;9.66;77.23
54022;BME280;39936;51.058;17.220;2023-03-14T07:00:10;99608.84;;;9.69;77.83
54022;BME280;39936;51.058;17.220;2023-03-14T07:03:28;99614.44;;;9.68;78.09
54022;BME280;39936;51.058;17.220;2023-03-14T07:07:43;99608.95;;;9.68;78.27
54022;BME280;39936;51.058;17.220;2023-03-14T07:12:04;99590.85;;;9.73;76.66
54022;BME280;39936;51.058;17.220;2023-03-14T07:15:23;99610.55;;;9.80;76.28
54022;BME280;39936;51.058;17.220;2023-03-14T07:18:40;99622.51;;;9.73;76.50
54022;BME280;39936;51.058;17.220;2023-03-14T07:22:23;99596.79;;;9.45;77.08
54022;BME280;39936;51.058;17.220;2023-03-14T07:26:02;99621.30;;;9.48;76.49
54022;BME280;39936;51.058;17.220;2023-03-14T07:37:51;99642.27;;;9.66;75.79
54022;BME280;39936;51.058;17.220;2023-03-14T07:41:11;99635.05;;;9.57;76.72
54022;BME280;39936;51.058;17.220;2023-03-14T07:44:51;99622.06;;;9.57;76.24
54022;BME280;39936;51.058;17.220;2023-03-14T07:48:34;99620.03;;;9.52;76.20
54022;BME280;39936;51.058;17.220;2023-03-14T07:51:55;99617.51;;;9.45;76.25
54022;BME280;39936;51.058;17.220;2023-03-14T07:55:34;99632.70;;;9.42;77.09
54022;BME280;39936;51.058;17.220;2023-03-14T07:59:12;99620.95;;;9.27;77.86
54022;BME280;39936;51.058;17.220;2023-03-14T08:03:22;99627.44;;;9.29;79.24
54022;BME280;39936;51.058;17.220;2023-03-14T08:07:26;99607.29;;;9.10;81.48
54022;BME280;39936;51.058;17.220;2023-03-14T08:10:46;99607.11;;;8.99;81.52
54022;BME280;39936;51.058;17.220;2023-03-14T08:14:18;99608.02;;;8.98;81.70
54022;BME280;39936;51.058;17.220;2023-03-14T08:17:57;99607.31;;;8.93;82.49
54022;BME280;39936;51.058;17.220;2023-03-14T08:21:31;99602.92;;;8.88;83.62
54022;BME280;39936;51.058;17.220;2023-03-14T08:25:34;99596.83;;;8.83;84.30
54022;BME280;39936;51.058;17.220;2023-03-14T08:29:15;99604.02;;;8.69;85.68
54022;BME280;39936;51.058;17.220;2023-03-14T08:33:13;99640.80;;;8.68;88.07
54022;BME280;39936;51.058;17.220;2023-03-14T08:36:59;99651.40;;;8.66;88.98
54022;BME280;39936;51.058;17.220;2023-03-14T08:40:23;99655.28;;;8.51;92.67
54022;BME280;39936;51.058;17.220;2023-03-14T08:48:22;99677.26;;;8.22;97.38
54022;BME280;39936;51.058;17.220;2023-03-14T08:52:06;99693.55;;;8.13;99.66
54022;BME280;39936;51.058;17.220;2023-03-14T08:55:31;99675.69;;;8.12;99.79
54022;BME280;39936;51.058;17.220;2023-03-14T08:58:49;99675.66;;;8.15;99.21
54022;BME280;39936;51.058;17.220;2023-03-14T09:02:10;99679.40;;;8.23;98.75
54022;BME280;39936;51.058;17.220;2023-03-14T09:06:04;99668.66;;;8.31;98.12
54022;BME280;39936;51.058;17.220;2023-03-14T09:13:47;99678.96;;;8.43;97.26
54022;BME280;39936;51.058;17.220;2023-03-14T09:17:28;99667.87;;;8.48;96.68
54022;BME280;39936;51.058;17.220;2023-03-14T09:21:10;99673.54;;;8.45;95.39
54022;BME280;39936;51.058;17.220;2023-03-14T09:25:05;99666.52;;;8.48;94.86
54022;BME280;39936;51.058;17.220;2023-03-14T09:28:42;99663.87;;;8.59;93.36
54022;BME280;39936;51.058;17.220;2023-03-14T09:32:56;99669.12;;;8.59;92.79
54022;BME280;39936;51.058;17.220;2023-03-14T09:36:18;99690.72;;;8.76;92.15
54022;BME280;39936;51.058;17.220;2023-03-14T09:39:51;99697.31;;;8.77;92.71
54022;BME280;39936;51.058;17.220;2023-03-14T09:43:11;99695.91;;;8.84;91.07
54022;BME280;39936;51.058;17.220;2023-03-14T09:46:54;99705.57;;;8.97;90.30
54022;BME280;39936;51.058;17.220;2023-03-14T10:01:29;99737.58;;;9.19;87.44
54022;BME280;39936;51.058;17.220;2023-03-14T10:05:16;99728.62;;;9.15;89.58
54022;BME280;39936;51.058;17.220;2023-03-14T10:08:59;99728.72;;;9.10;90.97
54022;BME280;39936;51.058;17.220;2023-03-14T10:12:59;99732.29;;;9.02;93.07
54022;BME280;39936;51.058;17.220;2023-03-14T10:16:44;99733.82;;;8.97;94.87
54022;BME280;39936;51.058;17.220;2023-03-14T10:20:38;99736.54;;;8.98;96.33
54022;BME280;39936;51.058;17.220;2023-03-14T10:24:36;99726.07;;;9.01;98.03
54022;BME280;39936;51.058;17.220;2023-03-14T10:43:13;99664.79;;;9.61;98.52
54022;BME280;39936;51.058;17.220;2023-03-14T10:46:37;99682.34;;;9.83;97.91
54022;BME280;39936;51.058;17.220;2023-03-14T10:57:45;99653.38;;;9.95;95.40
54022;BME280;39936;51.058;17.220;2023-03-14T11:13:07;99672.84;;;10.30;94.38
54022;BME280;39936;51.058;17.220;2023-03-14T11:21:26;99675.41;;;10.68;93.38
54022;BME280;39936;51.058;17.220;2023-03-14T11:36:35;99639.98;;;10.96;91.48
54022;BME280;39936;51.058;17.220;2023-03-14T11:40:25;99636.69;;;10.97;90.05
54022;BME280;39936;51.058;17.220;2023-03-14T11:47:38;99646.14;;;11.27;90.47
54022;BME280;39936;51.058;17.220;2023-03-14T11:59:13;99632.77;;;11.18;87.79
54022;BME280;39936;51.058;17.220;2023-03-14T12:06:51;99635.93;;;11.17;87.34
54022;BME280;39936;51.058;17.220;2023-03-14T12:10:11;99636.36;;;11.10;85.76
54022;BME280;39936;51.058;17.220;2023-03-14T12:17:42;99628.70;;;11.02;84.66
54022;BME280;39936;51.058;17.220;2023-03-14T12:21:11;99618.15;;;10.82;84.57
54022;BME280;39936;51.058;17.220;2023-03-14T12:24:46;99617.99;;;10.85;85.37
54022;BME280;39936;51.058;17.220;2023-03-14T12:28:32;99626.41;;;10.97;86.51
54022;BME280;39936;51.058;17.220;2023-03-14T12:32:22;99584.56;;;10.79;85.46
54022;BME280;39936;51.058;17.220;2023-03-14T12:36:31;99615.21;;;11.02;85.26
54022;BME280;39936;51.058;17.220;2023-03-14T12:55:13;99618.53;;;10.86;86.12
54022;BME280;39936;51.058;17.220;2023-03-14T13:02:51;99614.55;;;10.80;85.96
54022;BME280;39936;51.058;17.220;2023-03-14T13:06:57;99605.62;;;10.82;85.77
54022;BME280;39936;51.058;17.220;2023-03-14T13:10:56;99592.98;;;10.71;85.89
54022;BME280;39936;51.058;17.220;2023-03-14T13:14:19;99606.27;;;10.86;86.79
54022;BME280;39936;51.058;17.220;2023-03-14T13:21:50;99607.55;;;10.88;86.61
54022;BME280;39936;51.058;17.220;2023-03-14T13:25:32;99607.29;;;10.94;88.18
54022;BME280;39936;51.058;17.220;2023-03-14T13:29:28;99607.08;;;10.91;88.36
54022;BME280;39936;51.058;17.220;2023-03-14T13:32:54;99599.82;;;10.86;88.27
54022;BME280;39936;51.058;17.220;2023-03-14T13:36:57;99598.96;;;10.89;88.10
54022;BME280;39936;51.058;17.220;2023-03-14T13:45:05;99602.46;;;10.99;87.37
54022;BME280;39936;51.058;17.220;2023-03-14T13:48:30;99602.10;;;11.01;87.52
54022;BME280;39936;51.058;17.220;2023-03-14T13:55:45;99597.99;;;10.84;88.54
54022;BME280;39936;51.058;17.220;2023-03-14T13:59:21;99598.34;;;10.86;88.18
54022;BME280;39936;51.058;17.220;2023-03-14T14:03:00;99590.75;;;10.80;88.10
54022;BME280;39936;51.058;17.220;2023-03-14T14:06:50;99587.38;;;10.76;88.17
54022;BME280;39936;51.058;17.220;2023-03-14T14:10:14;99561.98;;;10.52;87.60
54022;BME280;39936;51.058;17.220;2023-03-14T14:14:42;99584.85;;;10.72;87.31
54022;BME280;39936;51.058;17.220;2023-03-14T14:18:55;99585.22;;;10.69;87.86
54022;BME280;39936;51.058;17.220;2023-03-14T14:23:09;99586.62;;;10.70;88.07
54022;BME280;39936;51.058;17.220;2023-03-14T14:26:53;99554.55;;;10.46;88.15
54022;BME280;39936;51.058;17.220;2023-03-14T14:30:28;99582.59;;;10.65;88.02
54022;BME280;39936;51.058;17.220;2023-03-14T14:34:04;99584.83;;;10.68;86.89
54022;BME280;39936;51.058;17.220;2023-03-14T14:41:40;99578.66;;;10.73;87.40
54022;BME280;39936;51.058;17.220;2023-03-14T14:45:11;99581.52;;;10.77;87.28
54022;BME280;39936;51.058;17.220;2023-03-14T14:48:46;99574.48;;;10.74;87.17
54022;BME280;39936;51.058;17.220;2023-03-14T14:56:36;99572.30;;;10.78;86.47
54022;BME280;39936;51.058;17.220;2023-03-14T15:00:04;99571.61;;;10.78;87.00
54022;BME280;39936;51.058;17.220;2023-03-14T15:04:12;99556.89;;;10.70;86.83
54022;BME280;39936;51.058;17.220;2023-03-14T15:07:46;99570.02;;;10.77;87.45
54022;BME280;39936;51.058;17.220;2023-03-14T15:11:51;99547.38;;;10.67;87.80
54022;BME280;39936;51.058;17.220;2023-03-14T15:15:30;99559.56;;;10.76;87.33
54022;BME280;39936;51.058;17.220;2023-03-14T15:18:59;99551.69;;;10.72;87.51
54022;BME280;39936;51.058;17.220;2023-03-14T15:22:32;99556.31;;;10.81;87.43
54022;BME280;39936;51.058;17.220;2023-03-14T15:26:49;99553.13;;;10.89;86.95
54022;BME280;39936;51.058;17.220;2023-03-14T15:30:22;99559.25;;;11.01;86.24
54022;BME280;39936;51.058;17.220;2023-03-14T15:33:55;99552.38;;;11.13;86.31
54022;BME280;39936;51.058;17.220;2023-03-14T15:37:43;99552.10;;;11.21;84.96
54022;BME280;39936;51.058;17.220;2023-03-14T15:41:25;99556.91;;;11.23;84.44
54022;BME280;39936;51.058;17.220;2023-03-14T15:44:45;99547.35;;;11.18;85.25
54022;BME280;39936;51.058;17.220;2023-03-14T15:48:17;99511.67;;;10.98;85.11
54022;BME280;39936;51.058;17.220;2023-03-14T15:52:01;99519.61;;;11.11;85.33
54022;BME280;39936;51.058;17.220;2023-03-14T15:55:51;99547.11;;;11.30;85.99
54022;BME280;39936;51.058;17.220;2023-03-14T15:59:22;99554.06;;;11.37;85.72
54022;BME280;39936;51.058;17.220;2023-03-14T16:03:06;99557.98;;;11.35;84.75
54022;BME280;39936;51.058;17.220;2023-03-14T16:06:35;99554.20;;;11.33;85.03
54022;BME280;39936;51.058;17.220;2023-03-14T16:09:58;99549.84;;;11.12;85.86
54022;BME280;39936;51.058;17.220;2023-03-14T16:13:40;99559.04;;;10.98;86.67
54022;BME280;39936;51.058;17.220;2023-03-14T16:17:16;99556.92;;;10.95;87.02
54022;BME280;39936;51.058;17.220;2023-03-14T16:20:35;99554.16;;;10.88;87.01
54022;BME280;39936;51.058;17.220;2023-03-14T16:24:49;99554.13;;;10.81;86.60
54022;BME280;39936;51.058;17.220;2023-03-14T16:28:57;99551.73;;;10.71;87.06
54022;BME280;39936;51.058;17.220;2023-03-14T16:32:32;99556.73;;;10.62;87.08
54022;BME280;39936;51.058;17.220;2023-03-14T16:36:24;99559.59;;;10.55;87.29
54022;BME280;39936;51.058;17.220;2023-03-14T16:39:46;99558.72;;;10.46;87.32
54022;BME280;39936;51.058;17.220;2023-03-14T16:43:30;99562.41;;;10.36;87.92
54022;BME280;39936;51.058;17.220;2023-03-14T16:50:50;99580.65;;;10.15;88.50
54022;BME280;39936;51.058;17.220;2023-03-14T16:54:55;99585.14;;;10.15;88.71
54022;BME280;39936;51.058;17.220;2023-03-14T16:58:17;99580.02;;;10.08;88.77
54022;BME280;39936;51.058;17.220;2023-03-14T17:01:39;99584.34;;;10.06;88.49
54022;BME280;39936;51.058;17.220;2023-03-14T17:05:47;99595.09;;;9.95;88.86
54022;BME280;39936;51.058;17.220;2023-03-14T17:09:43;99575.65;;;9.67;89.50
54022;BME280;39936;51.058;17.220;2023-03-14T17:17:00;99604.65;;;9.42;91.27
54022;BME280;39936;51.058;17.220;2023-03-14T17:20:47;99621.54;;;9.45;91.52
54022;BME280;39936;51.058;17.220;2023-03-14T17:24:09;99629.86;;;9.33;92.25
54022;BME280;39936;51.058;17.220;2023-03-14T17:27:50;99634.26;;;9.23;92.79
54022;BME280;39936;51.058;17.220;2023-03-14T17:31:41;99636.52;;;9.16;93.02
54022;BME280;39936;51.058;17.220;2023-03-14T17:35:34;99643.41;;;9.16;92.97
54022;BME280;39936;51.058;17.220;2023-03-14T17:39:03;99653.41;;;9.12;93.01
54022;BME280;39936;51.058;17.220;2023-03-14T17:46:52;99654.52;;;9.05;93.15
54022;BME280;39936;51.058;17.220;2023-03-14T17:50:46;99667.42;;;9.11;92.92
54022;BME280;39936;51.058;17.220;2023-03-14T17:58:14;99637.90;;;9.04;91.38
54022;BME280;39936;51.058;17.220;2023-03-14T18:02:34;99651.56;;;9.16;91.03
54022;BME280;39936;51.058;17.220;2023-03-14T18:06:17;99659.79;;;9.24;90.66
54022;BME280;39936;51.058;17.220;2023-03-14T18:09:37;99671.75;;;9.20;90.96
54022;BME280;39936;51.058;17.220;2023-03-14T18:13:20;99675.02;;;9.11;91.50
54022;BME280;39936;51.058;17.220;2023-03-14T18:16:50;99676.13;;;8.95;92.51
54022;BME280;39936;51.058;17.220;2023-03-14T18:20:34;99679.83;;;8.87;93.04
54022;BME280;39936;51.058;17.220;2023-03-14T18:24:23;99678.57;;;8.82;93.82
54022;BME280;39936;51.058;17.220;2023-03-14T18:28:00;99679.85;;;8.80;93.95
54022;BME280;39936;51.058;17.220;2023-03-14T18:31:25;99680.59;;;8.68;94.65
54022;BME280;39936;51.058;17.220;2023-03-14T18:34:45;99678.29;;;8.69;94.85
54022;BME280;39936;51.058;17.220;2023-03-14T18:38:54;99651.17;;;8.48;95.03
54022;BME280;39936;51.058;17.220;2023-03-14T18:42:14;99683.20;;;8.62;95.24
54022;BME280;39936;51.058;17.220;2023-03-14T18:45:52;99671.53;;;8.55;95.62
54022;BME280;39936;51.058;17.220;2023-03-14T18:49:41;99675.53;;;8.56;96.43
54022;BME280;39936;51.058;17.220;2023-03-14T18:53:04;99671.13;;;8.60;96.60
54022;BME280;39936;51.058;17.220;2023-03-14T18:57:03;99677.97;;;8.67;96.35
54022;BME280;39936;51.058;17.220;2023-03-14T19:01:25;99675.80;;;8.67;96.16
54022;BME280;39936;51.058;17.220;2023-03-14T19:04:53;99677.69;;;8.66;96.20
54022;BME280;39936;51.058;17.220;2023-03-14T19:08:46;99679.82;;;8.53;96.84
54022;BME280;39936;51.058;17.220;2023-03-14T19:12:18;99675.54;;;8.53;97.45
54022;BME280;39936;51.058;17.220;2023-03-14T19:15:38;99673.11;;;8.57;97.36
54022;BME280;39936;51.058;17.220;2023-03-14T19:19:22;99660.39;;;8.46;97.35
54022;BME280;39936;51.058;17.220;2023-03-14T19:22:43;99690.02;;;8.68;97.13
54022;BME280;39936;51.058;17.220;2023-03-14T19:26:26;99694.49;;;8.73;96.79
54022;BME280;39936;51.058;17.220;2023-03-14T19:29:50;99699.89;;;8.74;96.69
54022;BME280;39936;51.058;17.220;2023-03-14T19:33:54;99697.28;;;8.84;96.10
54022;BME280;39936;51.058;17.220;2023-03-14T19:37:27;99701.19;;;8.92;95.50
54022;BME280;39936;51.058;17.220;2023-03-14T19:41:16;99701.96;;;8.94;95.06
54022;BME280;39936;51.058;17.220;2023-03-14T19:45:04;99679.77;;;8.83;94.59
54022;BME280;39936;51.058;17.220;2023-03-14T19:53:10;99736.63;;;9.23;93.18
54022;BME280;39936;51.058;17.220;2023-03-14T19:56:54;99751.50;;;9.38;92.06
54022;BME280;39936;51.058;17.220;2023-03-14T20:00:18;99767.14;;;9.45;92.14
54022;BME280;39936;51.058;17.220;2023-03-14T20:03:50;99789.85;;;9.43;95.00
54022;BME280;39936;51.058;17.220;2023-03-14T20:11:34;99945.15;;;7.41;100.00
54022;BME280;39936;51.058;17.220;2023-03-14T20:15:42;99960.10;;;6.54;100.00
54022;BME280;39936;51.058;17.220;2023-03-14T20:19:32;99970.35;;;6.05;100.00
54022;BME280;39936;51.058;17.220;2023-03-14T20:23:07;99983.63;;;5.89;100.00
54022;BME280;39936;51.058;17.220;2023-03-14T20:26:27;100011.17;;;5.83;100.00
54022;BME280;39936;51.058;17.220;2023-03-14T20:30:21;100001.57;;;5.69;100.00
54022;BME280;39936;51.058;17.220;2023-03-14T20:34:01;100030.08;;;5.61;100.00
54022;BME280;39936;51.058;17.220;2023-03-14T20:37:43;100074.09;;;5.45;100.00
54022;BME280;39936;51.058;17.220;2023-03-14T20:41:04;100088.40;;;5.19;100.00
54022;BME280;39936;51.058;17.220;2023-03-14T20:44:24;100106.82;;;4.63;100.00
54022;BME280;39936;51.058;17.220;2023-03-14T20:47:44;100153.99;;;4.44;100.00
54022;BME280;39936;51.058;17.220;2023-03-14T20:51:18;100154.04;;;4.02;100.00
54022;BME280;39936;51.058;17.220;2023-03-14T20:54:50;100181.55;;;3.71;100.00
54022;BME280;39936;51.058;17.220;2023-03-14T20:58:31;100204.38;;;3.53;100.00
54022;BME280;39936;51.058;17.220;2023-03-14T21:02:34;100237.23;;;3.19;100.00
54022;BME280;39936;51.058;17.220;2023-03-14T21:05:57;100276.74;;;2.88;100.00
54022;BME280;39936;51.058;17.220;2023-03-14T21:09:33;100277.66;;;2.46;100.00
54022;BME280;39936;51.058;17.220;2023-03-14T21:13:15;100321.05;;;2.45;100.00
54022;BME280;39936;51.058;17.220;2023-03-14T21:16:55;100316.21;;;2.28;100.00
54022;BME280;39936;51.058;17.220;2023-03-14T21:20:35;100362.49;;;2.22;100.00
54022;BME280;39936;51.058;17.220;2023-03-14T21:24:19;100373.44;;;2.19;100.00
54022;BME280;39936;51.058;17.220;2023-03-14T21:28:09;100398.75;;;2.12;100.00
54022;BME280;39936;51.058;17.220;2023-03-14T21:31:30;100413.18;;;2.06;100.00
54022;BME280;39936;51.058;17.220;2023-03-14T21:35:10;100407.86;;;2.03;100.00
54022;BME280;39936;51.058;17.220;2023-03-14T21:38:42;100437.06;;;1.97;100.00
54022;BME280;39936;51.058;17.220;2023-03-14T21:42:33;100451.61;;;1.99;100.00
54022;BME280;39936;51.058;17.220;2023-03-14T21:46:12;100449.21;;;1.90;100.00
54022;BME280;39936;51.058;17.220;2023-03-14T21:49:59;100479.28;;;1.95;100.00
54022;BME280;39936;51.058;17.220;2023-03-14T21:53:52;100490.88;;;1.93;100.00
54022;BME280;39936;51.058;17.220;2023-03-14T21:57:54;100499.33;;;1.93;100.00
54022;BME280;39936;51.058;17.220;2023-03-14T22:02:19;100504.97;;;1.95;100.00
54022;BME280;39936;51.058;17.220;2023-03-14T22:05:45;100514.73;;;1.91;100.00
54022;BME280;39936;51.058;17.220;2023-03-14T22:10:11;100542.48;;;1.89;100.00
54022;BME280;39936;51.058;17.220;2023-03-14T22:14:07;100539.72;;;1.84;100.00
54022;BME280;39936;51.058;17.220;2023-03-14T22:17:25;100552.77;;;1.87;100.00
54022;BME280;39936;51.058;17.220;2023-03-14T22:21:02;100561.41;;;1.86;100.00
54022;BME280;39936;51.058;17.220;2023-03-14T22:24:23;100574.14;;;1.85;100.00
54022;BME280;39936;51.058;17.220;2023-03-14T22:28:34;100561.50;;;1.84;100.00
54022;BME280;39936;51.058;17.220;2023-03-14T22:32:15;100593.34;;;1.81;100.00
54022;BME280;39936;51.058;17.220;2023-03-14T22:36:29;100581.77;;;1.85;100.00
54022;BME280;39936;51.058;17.220;2023-03-14T22:41:00;100594.42;;;1.79;100.00